Time,TemperatureF,DewpointF,PressureIn,WindDirection,WindDirectionDegrees,WindSpeedMPH,WindSpeedGustMPH,Humidity,HourlyPrecipIn,Conditions,Clouds,dailyrainin,SoftwareType,DateUTC
2013-09-13 00:03:00,78.0,70.0,29.93,South,180,0.0,1.0,75,0.00,,,0.00,weatherlink.com 1.10,2013-09-13 04:03:00,
2013-09-13 00:18:00,77.8,69.0,29.93,SSW,195,0.0,1.0,74,0.00,,,0.00,weatherlink.com 1.10,2013-09-13 04:18:00,
2013-09-13 00:33:00,77.8,68.0,29.93,SW,218,0.0,1.0,72,0.00,,,0.00,weatherlink.com 1.10,2013-09-13 04:33:00,
2013-09-13 00:48:00,77.3,68.0,29.93,SW,218,0.0,0.0,74,0.00,,,0.00,weatherlink.com 1.10,2013-09-13 04:48:00,
2013-09-13 01:03:00,75.9,67.0,29.92,SW,218,0.0,0.0,73,0.00,,,0.00,weatherlink.com 1.10,2013-09-13 05:03:00,
2013-09-13 01:18:00,75.1,64.0,29.92,SW,218,0.0,0.0,69,0.00,,,0.00,weatherlink.com 1.10,2013-09-13 05:18:00,
2013-09-13 01:33:00,74.6,62.0,29.92,SW,218,0.0,0.0,64,0.00,,,0.00,weatherlink.com 1.10,2013-09-13 05:33:00,
2013-09-13 01:48:00,74.4,59.0,29.92,SW,218,0.0,0.0,60,0.00,,,0.00,weatherlink.com 1.10,2013-09-13 05:48:00,
2013-09-13 02:03:00,74.2,58.0,29.93,SW,218,0.0,0.0,57,0.00,,,0.00,weatherlink.com 1.10,2013-09-13 06:03:00,
2013-09-13 02:18:00,73.9,57.0,29.92,SW,218,0.0,0.0,55,0.00,,,0.00,weatherlink.com 1.10,2013-09-13 06:18:00,
2013-09-13 02:33:00,73.8,55.0,29.92,SW,218,0.0,0.0,53,0.00,,,0.00,weatherlink.com 1.10,2013-09-13 06:33:00,
2013-09-13 02:48:00,73.7,54.0,29.92,SW,218,0.0,0.0,51,0.00,,,0.00,weatherlink.com 1.10,2013-09-13 06:48:00,
2013-09-13 03:03:00,73.9,51.0,29.92,NNW,341,0.0,0.0,45,0.00,,,0.00,weatherlink.com 1.10,2013-09-13 07:03:00,
2013-09-13 03:18:00,73.9,51.0,29.92,NNW,341,0.0,0.0,45,0.00,,,0.00,weatherlink.com 1.10,2013-09-13 07:18:00,
2013-09-13 03:33:00,73.6,53.0,29.91,NNW,341,0.0,0.0,48,0.00,,,0.00,weatherlink.com 1.10,2013-09-13 07:33:00,
2013-09-13 03:48:00,73.4,51.0,29.91,NNW,341,0.0,0.0,45,0.00,,,0.00,weatherlink.com 1.10,2013-09-13 07:48:00,
2013-09-13 04:03:00,73.1,50.0,29.90,NNW,341,0.0,0.0,45,0.00,,,0.00,weatherlink.com 1.10,2013-09-13 08:03:00,
2013-09-13 04:18:00,73.0,50.0,29.90,NNW,341,0.0,0.0,44,0.00,,,0.00,weatherlink.com 1.10,2013-09-13 08:18:00,
2013-09-13 04:33:00,72.8,50.0,29.90,NNW,341,0.0,0.0,44,0.00,,,0.00,weatherlink.com 1.10,2013-09-13 08:33:00,
2013-09-13 04:48:00,72.6,49.0,29.90,NNW,341,0.0,0.0,43,0.00,,,0.00,weatherlink.com 1.10,2013-09-13 08:48:00,
2013-09-13 05:03:00,72.6,48.0,29.90,NNW,341,0.0,0.0,42,0.00,,,0.00,weatherlink.com 1.10,2013-09-13 09:03:00,
2013-09-13 05:18:00,72.5,48.0,29.90,NNW,341,0.0,0.0,42,0.00,,,0.00,weatherlink.com 1.10,2013-09-13 09:18:00,
2013-09-13 05:33:00,72.7,46.0,29.89,NNW,341,0.0,0.0,39,0.00,,,0.00,weatherlink.com 1.10,2013-09-13 09:33:00,
2013-09-13 05:48:00,72.7,48.0,29.89,NNW,341,0.0,0.0,41,0.00,,,0.00,weatherlink.com 1.10,2013-09-13 09:48:00,
2013-09-13 06:03:00,72.9,46.0,29.89,NNW,341,0.0,0.0,39,0.00,,,0.00,weatherlink.com 1.10,2013-09-13 10:03:00,
2013-09-13 06:18:00,73.6,46.0,29.89,ENE,66,0.0,0.0,38,0.00,,,0.00,weatherlink.com 1.10,2013-09-13 10:18:00,
2013-09-13 06:33:00,74.0,47.0,29.90,ENE,66,0.0,0.0,38,0.00,,,0.00,weatherlink.com 1.10,2013-09-13 10:33:00,
2013-09-13 06:48:00,74.1,48.0,29.90,ENE,66,0.0,0.0,40,0.00,,,0.00,weatherlink.com 1.10,2013-09-13 10:48:00,
2013-09-13 07:03:00,74.3,47.0,29.90,ENE,66,0.0,0.0,38,0.00,,,0.00,weatherlink.com 1.10,2013-09-13 11:03:00,
2013-09-13 07:18:00,74.1,49.0,29.90,ENE,65,0.0,0.0,41,0.00,,,0.00,weatherlink.com 1.10,2013-09-13 11:18:00,
2013-09-13 07:33:00,73.9,48.0,29.90,NW,318,0.0,0.0,40,0.00,,,0.00,weatherlink.com 1.10,2013-09-13 11:33:00,
2013-09-13 07:48:00,73.7,48.0,29.90,NW,318,0.0,0.0,40,0.00,,,0.00,weatherlink.com 1.10,2013-09-13 11:48:00,
2013-09-13 08:03:00,74.4,48.0,29.90,WNW,302,0.0,1.0,39,0.00,,,0.00,weatherlink.com 1.10,2013-09-13 12:03:00,
2013-09-13 08:18:00,75.2,48.0,29.91,WNW,299,0.0,0.0,39,0.00,,,0.00,weatherlink.com 1.10,2013-09-13 12:18:00,
2013-09-13 08:33:00,76.4,50.0,29.91,WNW,299,0.0,0.0,39,0.00,,,0.00,weatherlink.com 1.10,2013-09-13 12:33:00,
2013-09-13 08:48:00,76.6,59.0,29.91,West,276,0.0,1.0,54,0.00,,,0.00,weatherlink.com 1.10,2013-09-13 12:48:00,
2013-09-13 09:04:00,77.0,60.0,29.91,West,261,4.0,5.0,57,0.00,,,0.00,weatherlink.com 1.10,2013-09-13 13:04:00,
2013-09-13 09:19:00,77.1,63.0,29.91,WSW,258,4.0,6.0,62,0.00,,,0.00,weatherlink.com 1.10,2013-09-13 13:19:00,
2013-09-13 09:34:00,77.6,66.0,29.92,WSW,250,4.0,5.0,67,0.00,,,0.00,weatherlink.com 1.10,2013-09-13 13:34:00,
2013-09-13 09:49:00,78.2,69.0,29.92,WSW,241,4.0,5.0,74,0.00,,,0.00,weatherlink.com 1.10,2013-09-13 13:49:00,
2013-09-13 10:04:00,78.6,70.0,29.92,SW,221,0.0,4.0,75,0.00,,,0.00,weatherlink.com 1.10,2013-09-13 14:04:00,
2013-09-13 10:19:00,79.0,72.0,29.92,SW,224,4.0,6.0,78,0.00,,,0.00,weatherlink.com 1.10,2013-09-13 14:19:00,
2013-09-13 10:34:00,79.3,72.0,29.91,SW,221,0.0,5.0,78,0.00,,,0.00,weatherlink.com 1.10,2013-09-13 14:34:00,
2013-09-13 10:49:00,79.5,72.0,29.91,SSW,211,4.0,5.0,77,0.00,,,0.00,weatherlink.com 1.10,2013-09-13 14:49:00,
2013-09-13 11:04:00,79.9,73.0,29.91,SSW,211,0.0,5.0,78,0.00,,,0.00,weatherlink.com 1.10,2013-09-13 15:04:00,
2013-09-13 11:19:00,80.4,73.0,29.91,SSW,200,0.0,0.0,77,0.00,,,0.00,weatherlink.com 1.10,2013-09-13 15:19:00,
2013-09-13 11:34:00,80.8,73.0,29.91,SSW,210,0.0,1.0,77,0.00,,,0.00,weatherlink.com 1.10,2013-09-13 15:34:00,
2013-09-13 11:49:00,81.3,73.0,29.91,SSW,194,0.0,1.0,77,0.00,,,0.00,weatherlink.com 1.10,2013-09-13 15:49:00,
2013-09-13 12:04:00,82.0,74.0,29.91,South,188,0.0,0.0,76,0.00,,,0.00,weatherlink.com 1.10,2013-09-13 16:04:00,
2013-09-13 12:19:00,82.2,74.0,29.90,South,173,0.0,1.0,76,0.00,,,0.00,weatherlink.com 1.10,2013-09-13 16:19:00,
2013-09-13 12:34:00,82.7,74.0,29.90,South,183,0.0,4.0,75,0.00,,,0.00,weatherlink.com 1.10,2013-09-13 16:34:00,
2013-09-13 12:49:00,83.1,74.0,29.89,SSW,209,5.0,6.0,73,0.00,,,0.00,weatherlink.com 1.10,2013-09-13 16:49:00,
2013-09-13 13:04:00,84.0,73.0,29.89,South,184,0.0,4.0,70,0.00,,,0.00,weatherlink.com 1.10,2013-09-13 17:04:00,
2013-09-13 13:19:00,84.6,74.0,29.88,SSW,211,3.0,5.0,70,0.00,,,0.00,weatherlink.com 1.10,2013-09-13 17:19:00,
2013-09-13 13:34:00,85.0,72.0,29.87,SSW,199,5.0,5.0,66,0.00,,,0.00,weatherlink.com 1.10,2013-09-13 17:34:00,
2013-09-13 13:49:00,85.5,73.0,29.86,South,188,5.0,5.0,66,0.00,,,0.00,weatherlink.com 1.10,2013-09-13 17:49:00,
2013-09-13 14:04:00,85.7,72.0,29.86,SSW,196,6.0,7.0,64,0.00,,,0.00,weatherlink.com 1.10,2013-09-13 18:04:00,
2013-09-13 14:19:00,86.0,72.0,29.85,SSW,199,6.0,7.0,64,0.00,,,0.00,weatherlink.com 1.10,2013-09-13 18:19:00,
2013-09-13 14:34:00,86.4,72.0,29.85,SSW,207,5.0,7.0,63,0.00,,,0.00,weatherlink.com 1.10,2013-09-13 18:34:00,
2013-09-13 14:50:00,86.8,72.0,29.84,SSW,192,4.0,6.0,62,0.00,,,0.00,weatherlink.com 1.10,2013-09-13 18:50:00,
2013-09-13 15:05:00,87.0,71.0,29.83,SSW,213,5.0,6.0,59,0.00,,,0.00,weatherlink.com 1.10,2013-09-13 19:05:00,
2013-09-13 15:20:00,87.7,71.0,29.82,SW,225,5.0,5.0,58,0.00,,,0.00,weatherlink.com 1.10,2013-09-13 19:20:00,
2013-09-13 15:35:00,88.0,71.0,29.82,SW,218,3.0,5.0,58,0.00,,,0.00,weatherlink.com 1.10,2013-09-13 19:35:00,
2013-09-13 15:50:00,88.2,72.0,29.81,SSW,204,4.0,4.0,59,0.00,,,0.00,weatherlink.com 1.10,2013-09-13 19:50:00,
2013-09-13 16:05:00,88.3,72.0,29.81,SSW,204,0.0,4.0,58,0.00,,,0.00,weatherlink.com 1.10,2013-09-13 20:05:00,
2013-09-13 16:20:00,88.5,72.0,29.81,SSW,196,0.0,3.0,59,0.00,,,0.00,weatherlink.com 1.10,2013-09-13 20:20:00,
2013-09-13 16:35:00,89.0,71.0,29.81,SW,229,1.0,5.0,55,0.00,,,0.00,weatherlink.com 1.10,2013-09-13 20:35:00,
2013-09-13 16:50:00,89.6,71.0,29.80,SW,229,0.0,0.0,55,0.00,,,0.00,weatherlink.com 1.10,2013-09-13 20:50:00,
2013-09-13 17:05:00,89.3,71.0,29.80,SW,234,2.0,3.0,55,0.00,,,0.00,weatherlink.com 1.10,2013-09-13 21:05:00,
2013-09-13 17:20:00,89.2,71.0,29.80,WSW,246,1.0,3.0,55,0.00,,,0.00,weatherlink.com 1.10,2013-09-13 21:20:00,
2013-09-13 17:35:00,88.9,71.0,29.80,WSW,245,4.0,7.0,55,0.00,,,0.00,weatherlink.com 1.10,2013-09-13 21:35:00,
2013-09-13 17:50:00,88.8,72.0,29.80,WSW,255,4.0,6.0,58,0.00,,,0.00,weatherlink.com 1.10,2013-09-13 21:50:00,
2013-09-13 18:05:00,85.7,74.0,29.81,WNW,291,5.0,17.0,69,0.00,,,0.00,weatherlink.com 1.10,2013-09-13 22:05:00,
2013-09-13 18:20:00,83.9,74.0,29.81,West,273,4.0,13.0,71,0.00,,,0.00,weatherlink.com 1.10,2013-09-13 22:20:00,
2013-09-13 18:35:00,83.8,73.0,29.81,WNW,293,7.0,8.0,70,0.00,,,0.00,weatherlink.com 1.10,2013-09-13 22:35:00,
2013-09-13 18:50:00,83.4,73.0,29.81,West,259,2.0,7.0,71,0.00,,,0.00,weatherlink.com 1.10,2013-09-13 22:50:00,
2013-09-13 19:05:00,83.3,73.0,29.82,WNW,291,0.0,3.0,72,0.00,,,0.00,weatherlink.com 1.10,2013-09-13 23:05:00,
2013-09-13 19:20:00,83.2,73.0,29.82,NNW,344,0.0,0.0,71,0.00,,,0.00,weatherlink.com 1.10,2013-09-13 23:20:00,
2013-09-13 19:35:00,82.6,73.0,29.83,NE,38,0.0,0.0,73,0.00,,,0.00,weatherlink.com 1.10,2013-09-13 23:35:00,
2013-09-13 19:50:00,81.6,73.0,29.84,NE,36,0.0,0.0,75,0.00,,,0.00,weatherlink.com 1.10,2013-09-13 23:50:00,
2013-09-13 20:05:00,80.9,73.0,29.84,West,279,0.0,0.0,76,0.00,,,0.00,weatherlink.com 1.10,2013-09-14 00:05:00,
2013-09-13 20:20:00,80.6,73.0,29.84,NW,304,0.0,0.0,77,0.00,,,0.00,weatherlink.com 1.10,2013-09-14 00:20:00,
2013-09-13 20:35:00,80.2,72.0,29.85,NW,304,0.0,0.0,77,0.00,,,0.00,weatherlink.com 1.10,2013-09-14 00:35:00,
2013-09-13 20:50:00,79.8,72.0,29.85,NW,304,0.0,0.0,77,0.00,,,0.00,weatherlink.com 1.10,2013-09-14 00:50:00,
2013-09-13 21:05:00,79.4,72.0,29.85,ESE,107,0.0,0.0,78,0.00,,,0.00,weatherlink.com 1.10,2013-09-14 01:05:00,
2013-09-13 21:20:00,79.0,72.0,29.86,ESE,105,0.0,0.0,78,0.00,,,0.00,weatherlink.com 1.10,2013-09-14 01:20:00,
2013-09-13 21:35:00,79.0,71.0,29.86,ESE,114,0.0,0.0,77,0.00,,,0.00,weatherlink.com 1.10,2013-09-14 01:35:00,
2013-09-13 21:50:00,79.2,71.0,29.87,ESE,111,0.0,0.0,77,0.00,,,0.00,weatherlink.com 1.10,2013-09-14 01:50:00,
2013-09-13 22:05:00,80.1,73.0,29.87,ESE,103,0.0,0.0,78,0.00,,,0.00,weatherlink.com 1.10,2013-09-14 02:05:00,
2013-09-13 22:20:00,80.2,73.0,29.87,ESE,119,0.0,0.0,78,0.00,,,0.00,weatherlink.com 1.10,2013-09-14 02:20:00,
2013-09-13 22:35:00,79.8,72.0,29.87,ENE,75,0.0,0.0,78,0.00,,,0.00,weatherlink.com 1.10,2013-09-14 02:35:00,
2013-09-13 22:50:00,79.7,72.0,29.87,ESE,121,0.0,0.0,78,0.00,,,0.00,weatherlink.com 1.10,2013-09-14 02:50:00,
2013-09-13 23:05:00,79.9,73.0,29.87,East,89,0.0,0.0,78,0.00,,,0.00,weatherlink.com 1.10,2013-09-14 03:05:00,
2013-09-13 23:20:00,79.6,72.0,29.87,East,85,0.0,0.0,78,0.00,,,0.00,weatherlink.com 1.10,2013-09-14 03:20:00,
2013-09-13 23:35:00,79.3,72.0,29.87,ENE,67,0.0,0.0,78,0.00,,,0.00,weatherlink.com 1.10,2013-09-14 03:35:00,
2013-09-13 23:50:00,79.0,72.0,29.87,ENE,67,0.0,0.0,78,0.00,,,0.00,weatherlink.com 1.10,2013-09-14 03:50:00,